sensor_id;sensor_type;location;lat;lon;timestamp;P1;durP1;ratioP1;P2;durP2;ratioP2
1505;SDS011;744;51.436;7.356;2023-03-05T00:01:06;2.90;;;1.40;;
1505;SDS011;744;51.436;7.356;2023-03-05T00:03:34;8.43;;;2.17;;
1505;SDS011;744;51.436;7.356;2023-03-05T00:06:01;3.37;;;1.53;;
1505;SDS011;744;51.436;7.356;2023-03-05T00:08:29;6.33;;;2.00;;
1505;SDS011;744;51.436;7.356;2023-03-05T00:10:56;8.13;;;1.77;;
1505;SDS011;744;51.436;7.356;2023-03-05T00:13:26;3.97;;;1.50;;
1505;SDS011;744;51.436;7.356;2023-03-05T00:15:53;4.43;;;1.67;;
1505;SDS011;744;51.436;7.356;2023-03-05T00:18:21;2.50;;;1.20;;
1505;SDS011;744;51.436;7.356;2023-03-05T00:20:48;5.60;;;2.10;;
1505;SDS011;744;51.436;7.356;2023-03-05T00:23:15;9.60;;;2.03;;
1505;SDS011;744;51.436;7.356;2023-03-05T00:25:42;11.17;;;3.13;;
1505;SDS011;744;51.436;7.356;2023-03-05T00:28:11;4.00;;;1.77;;
1505;SDS011;744;51.436;7.356;2023-03-05T00:30:38;6.40;;;2.07;;
1505;SDS011;744;51.436;7.356;2023-03-05T00:33:06;5.50;;;2.77;;
1505;SDS011;744;51.436;7.356;2023-03-05T00:35:40;4.37;;;2.40;;
1505;SDS011;744;51.436;7.356;2023-03-05T00:38:08;8.50;;;2.60;;
1505;SDS011;744;51.436;7.356;2023-03-05T00:40:36;7.60;;;2.73;;
1505;SDS011;744;51.436;7.356;2023-03-05T00:43:04;12.50;;;3.63;;
1505;SDS011;744;51.436;7.356;2023-03-05T00:45:32;7.30;;;3.63;;
1505;SDS011;744;51.436;7.356;2023-03-05T00:47:59;7.87;;;3.77;;
1505;SDS011;744;51.436;7.356;2023-03-05T00:50:25;5.30;;;3.40;;
1505;SDS011;744;51.436;7.356;2023-03-05T00:52:52;10.10;;;4.83;;
1505;SDS011;744;51.436;7.356;2023-03-05T00:55:19;4.50;;;2.80;;
1505;SDS011;744;51.436;7.356;2023-03-05T00:57:47;7.93;;;3.57;;
1505;SDS011;744;51.436;7.356;2023-03-05T01:00:14;8.40;;;2.60;;
1505;SDS011;744;51.436;7.356;2023-03-05T01:02:41;6.13;;;3.23;;
1505;SDS011;744;51.436;7.356;2023-03-05T01:05:12;6.40;;;2.63;;
1505;SDS011;744;51.436;7.356;2023-03-05T01:07:39;6.60;;;2.90;;
1505;SDS011;744;51.436;7.356;2023-03-05T01:10:07;7.83;;;3.60;;
1505;SDS011;744;51.436;7.356;2023-03-05T01:12:34;4.40;;;2.97;;
1505;SDS011;744;51.436;7.356;2023-03-05T01:15:01;5.73;;;3.37;;
1505;SDS011;744;51.436;7.356;2023-03-05T01:17:29;10.80;;;3.17;;
1505;SDS011;744;51.436;7.356;2023-03-05T01:19:55;11.00;;;3.70;;
1505;SDS011;744;51.436;7.356;2023-03-05T01:22:22;6.57;;;3.70;;
1505;SDS011;744;51.436;7.356;2023-03-05T01:24:49;6.93;;;4.23;;
1505;SDS011;744;51.436;7.356;2023-03-05T01:27:16;5.97;;;2.70;;
1505;SDS011;744;51.436;7.356;2023-03-05T01:29:42;8.37;;;3.87;;
1505;SDS011;744;51.436;7.356;2023-03-05T01:32:09;5.43;;;3.13;;
1505;SDS011;744;51.436;7.356;2023-03-05T01:34:36;8.60;;;2.93;;
1505;SDS011;744;51.436;7.356;2023-03-05T01:37:03;8.90;;;3.13;;
1505;SDS011;744;51.436;7.356;2023-03-05T01:39:30;8.10;;;3.67;;
1505;SDS011;744;51.436;7.356;2023-03-05T01:41:57;4.17;;;3.40;;
1505;SDS011;744;51.436;7.356;2023-03-05T01:44:28;6.97;;;3.47;;
1505;SDS011;744;51.436;7.356;2023-03-05T01:46:55;9.60;;;4.80;;
1505;SDS011;744;51.436;7.356;2023-03-05T01:49:35;12.80;;;3.80;;
1505;SDS011;744;51.436;7.356;2023-03-05T01:54:46;5.53;;;2.80;;
1505;SDS011;744;51.436;7.356;2023-03-05T01:57:17;5.30;;;2.97;;
1505;SDS011;744;51.436;7.356;2023-03-05T01:59:53;3.23;;;2.93;;
1505;SDS011;744;51.436;7.356;2023-03-05T02:02:23;6.70;;;3.67;;
1505;SDS011;744;51.436;7.356;2023-03-05T02:04:54;5.20;;;3.80;;
1505;SDS011;744;51.436;7.356;2023-03-05T02:07:25;7.10;;;4.63;;
1505;SDS011;744;51.436;7.356;2023-03-05T02:09:53;5.93;;;4.10;;
1505;SDS011;744;51.436;7.356;2023-03-05T02:12:20;9.63;;;5.20;;
1505;SDS011;744;51.436;7.356;2023-03-05T02:14:47;8.63;;;5.37;;
1505;SDS011;744;51.436;7.356;2023-03-05T02:17:25;11.03;;;4.70;;
1505;SDS011;744;51.436;7.356;2023-03-05T02:19:54;7.40;;;4.43;;
1505;SDS011;744;51.436;7.356;2023-03-05T02:22:27;8.33;;;4.33;;
1505;SDS011;744;51.436;7.356;2023-03-05T02:24:54;7.20;;;4.17;;
1505;SDS011;744;51.436;7.356;2023-03-05T02:27:22;6.80;;;4.20;;
1505;SDS011;744;51.436;7.356;2023-03-05T02:30:00;6.47;;;5.17;;
1505;SDS011;744;51.436;7.356;2023-03-05T02:32:27;13.40;;;5.33;;
1505;SDS011;744;51.436;7.356;2023-03-05T02:34:54;9.33;;;6.10;;
1505;SDS011;744;51.436;7.356;2023-03-05T02:37:20;5.80;;;3.70;;
1505;SDS011;744;51.436;7.356;2023-03-05T02:39:47;12.07;;;4.67;;
1505;SDS011;744;51.436;7.356;2023-03-05T02:42:14;9.60;;;3.53;;
1505;SDS011;744;51.436;7.356;2023-03-05T02:44:41;8.40;;;3.80;;
1505;SDS011;744;51.436;7.356;2023-03-05T02:47:07;5.00;;;3.00;;
1505;SDS011;744;51.436;7.356;2023-03-05T02:49:34;6.80;;;3.40;;
1505;SDS011;744;51.436;7.356;2023-03-05T02:52:01;5.00;;;2.83;;
1505;SDS011;744;51.436;7.356;2023-03-05T02:54:27;5.40;;;2.40;;
1505;SDS011;744;51.436;7.356;2023-03-05T02:56:54;3.00;;;1.97;;
1505;SDS011;744;51.436;7.356;2023-03-05T02:59:21;4.60;;;2.17;;
1505;SDS011;744;51.436;7.356;2023-03-05T03:01:48;2.83;;;2.00;;
1505;SDS011;744;51.436;7.356;2023-03-05T03:04:15;2.80;;;1.93;;
1505;SDS011;744;51.436;7.356;2023-03-05T03:06:41;4.70;;;2.73;;
1505;SDS011;744;51.436;7.356;2023-03-05T03:09:08;4.60;;;2.30;;
1505;SDS011;744;51.436;7.356;2023-03-05T03:11:35;4.33;;;1.57;;
1505;SDS011;744;51.436;7.356;2023-03-05T03:14:02;6.43;;;2.70;;
1505;SDS011;744;51.436;7.356;2023-03-05T03:16:28;5.17;;;1.80;;
1505;SDS011;744;51.436;7.356;2023-03-05T03:18:55;2.23;;;1.33;;
1505;SDS011;744;51.436;7.356;2023-03-05T03:21:23;3.47;;;1.30;;
1505;SDS011;744;51.436;7.356;2023-03-05T03:23:50;3.00;;;1.83;;
1505;SDS011;744;51.436;7.356;2023-03-05T03:26:18;5.80;;;1.57;;
1505;SDS011;744;51.436;7.356;2023-03-05T03:28:45;1.93;;;1.53;;
1505;SDS011;744;51.436;7.356;2023-03-05T03:31:12;3.20;;;0.93;;
1505;SDS011;744;51.436;7.356;2023-03-05T03:33:39;4.73;;;1.57;;
1505;SDS011;744;51.436;7.356;2023-03-05T03:36:06;3.20;;;1.40;;
1505;SDS011;744;51.436;7.356;2023-03-05T03:38:33;6.60;;;1.50;;
1505;SDS011;744;51.436;7.356;2023-03-05T03:41:00;8.13;;;1.60;;
1505;SDS011;744;51.436;7.356;2023-03-05T03:43:27;7.77;;;2.33;;
1505;SDS011;744;51.436;7.356;2023-03-05T03:45:53;3.90;;;1.80;;
1505;SDS011;744;51.436;7.356;2023-03-05T03:48:20;7.30;;;2.57;;
1505;SDS011;744;51.436;7.356;2023-03-05T03:50:47;7.27;;;2.03;;
1505;SDS011;744;51.436;7.356;2023-03-05T03:53:13;5.27;;;2.33;;
1505;SDS011;744;51.436;7.356;2023-03-05T03:55:42;3.60;;;2.37;;
1505;SDS011;744;51.436;7.356;2023-03-05T03:58:11;4.70;;;2.53;;
1505;SDS011;744;51.436;7.356;2023-03-05T04:00:38;5.90;;;2.43;;
1505;SDS011;744;51.436;7.356;2023-03-05T04:03:06;3.57;;;2.80;;
1505;SDS011;744;51.436;7.356;2023-03-05T04:05:34;7.30;;;3.50;;
1505;SDS011;744;51.436;7.356;2023-03-05T04:08:01;3.27;;;2.43;;
1505;SDS011;744;51.436;7.356;2023-03-05T04:10:28;4.93;;;2.87;;
1505;SDS011;744;51.436;7.356;2023-03-05T04:12:55;6.57;;;2.47;;
1505;SDS011;744;51.436;7.356;2023-03-05T04:15:22;3.63;;;2.60;;
1505;SDS011;744;51.436;7.356;2023-03-05T04:17:50;3.03;;;2.33;;
1505;SDS011;744;51.436;7.356;2023-03-05T04:20:17;5.10;;;2.40;;
1505;SDS011;744;51.436;7.356;2023-03-05T04:22:44;3.70;;;2.60;;
1505;SDS011;744;51.436;7.356;2023-03-05T04:25:10;3.70;;;2.77;;
1505;SDS011;744;51.436;7.356;2023-03-05T04:27:37;7.77;;;3.70;;
1505;SDS011;744;51.436;7.356;2023-03-05T04:30:06;2.30;;;1.70;;
1505;SDS011;744;51.436;7.356;2023-03-05T04:32:33;5.83;;;1.67;;
1505;SDS011;744;51.436;7.356;2023-03-05T04:35:00;5.80;;;1.97;;
1505;SDS011;744;51.436;7.356;2023-03-05T04:37:27;5.10;;;2.00;;
1505;SDS011;744;51.436;7.356;2023-03-05T04:39:54;3.90;;;2.10;;
1505;SDS011;744;51.436;7.356;2023-03-05T04:42:21;5.23;;;2.13;;
1505;SDS011;744;51.436;7.356;2023-03-05T04:44:48;6.43;;;2.50;;
1505;SDS011;744;51.436;7.356;2023-03-05T04:47:16;4.20;;;2.10;;
1505;SDS011;744;51.436;7.356;2023-03-05T04:49:43;4.90;;;2.33;;
1505;SDS011;744;51.436;7.356;2023-03-05T04:52:11;4.43;;;2.20;;
1505;SDS011;744;51.436;7.356;2023-03-05T04:54:39;4.60;;;2.27;;
1505;SDS011;744;51.436;7.356;2023-03-05T04:57:06;6.13;;;3.57;;
1505;SDS011;744;51.436;7.356;2023-03-05T04:59:33;8.67;;;3.63;;
1505;SDS011;744;51.436;7.356;2023-03-05T05:02:01;8.90;;;4.50;;
1505;SDS011;744;51.436;7.356;2023-03-05T05:04:28;4.67;;;3.83;;
1505;SDS011;744;51.436;7.356;2023-03-05T05:06:55;8.27;;;4.10;;
1505;SDS011;744;51.436;7.356;2023-03-05T05:09:23;9.60;;;3.40;;
1505;SDS011;744;51.436;7.356;2023-03-05T05:11:50;9.63;;;4.00;;
1505;SDS011;744;51.436;7.356;2023-03-05T05:14:17;10.93;;;4.10;;
1505;SDS011;744;51.436;7.356;2023-03-05T05:16:44;9.87;;;4.80;;
1505;SDS011;744;51.436;7.356;2023-03-05T05:19:11;4.50;;;4.10;;
1505;SDS011;744;51.436;7.356;2023-03-05T05:21:38;8.90;;;5.27;;
1505;SDS011;744;51.436;7.356;2023-03-05T05:24:05;8.13;;;5.10;;
1505;SDS011;744;51.436;7.356;2023-03-05T05:26:32;7.00;;;4.90;;
1505;SDS011;744;51.436;7.356;2023-03-05T05:28:59;8.30;;;4.60;;
1505;SDS011;744;51.436;7.356;2023-03-05T05:31:25;8.97;;;5.17;;
1505;SDS011;744;51.436;7.356;2023-03-05T05:33:52;6.87;;;4.53;;
1505;SDS011;744;51.436;7.356;2023-03-05T05:36:19;5.23;;;4.20;;
1505;SDS011;744;51.436;7.356;2023-03-05T05:38:47;6.30;;;4.80;;
1505;SDS011;744;51.436;7.356;2023-03-05T05:41:15;8.40;;;5.40;;
1505;SDS011;744;51.436;7.356;2023-03-05T05:43:43;7.80;;;5.37;;
1505;SDS011;744;51.436;7.356;2023-03-05T05:46:11;12.03;;;4.10;;
1505;SDS011;744;51.436;7.356;2023-03-05T05:48:43;9.40;;;4.37;;
1505;SDS011;744;51.436;7.356;2023-03-05T05:51:14;8.00;;;5.57;;
1505;SDS011;744;51.436;7.356;2023-03-05T05:53:43;13.10;;;5.87;;
1505;SDS011;744;51.436;7.356;2023-03-05T05:56:11;9.37;;;6.03;;
1505;SDS011;744;51.436;7.356;2023-03-05T05:58:39;9.63;;;6.30;;
1505;SDS011;744;51.436;7.356;2023-03-05T06:01:11;10.50;;;7.97;;
1505;SDS011;744;51.436;7.356;2023-03-05T06:03:39;11.17;;;6.43;;
1505;SDS011;744;51.436;7.356;2023-03-05T06:06:07;16.40;;;8.13;;
1505;SDS011;744;51.436;7.356;2023-03-05T06:08:35;19.40;;;9.10;;
1505;SDS011;744;51.436;7.356;2023-03-05T06:11:02;14.83;;;9.20;;
1505;SDS011;744;51.436;7.356;2023-03-05T06:13:29;14.43;;;10.20;;
1505;SDS011;744;51.436;7.356;2023-03-05T06:16:00;16.30;;;10.60;;
1505;SDS011;744;51.436;7.356;2023-03-05T06:18:30;20.47;;;9.90;;
1505;SDS011;744;51.436;7.356;2023-03-05T06:21:08;14.10;;;9.40;;
1505;SDS011;744;51.436;7.356;2023-03-05T06:23:39;12.30;;;9.20;;
1505;SDS011;744;51.436;7.356;2023-03-05T06:26:06;13.27;;;9.30;;
1505;SDS011;744;51.436;7.356;2023-03-05T06:28:34;15.53;;;10.70;;
1505;SDS011;744;51.436;7.356;2023-03-05T06:31:05;12.37;;;10.33;;
1505;SDS011;744;51.436;7.356;2023-03-05T06:33:37;14.00;;;9.60;;
1505;SDS011;744;51.436;7.356;2023-03-05T06:36:04;11.83;;;9.57;;
1505;SDS011;744;51.436;7.356;2023-03-05T06:38:33;14.90;;;9.93;;
1505;SDS011;744;51.436;7.356;2023-03-05T06:41:01;14.23;;;8.90;;
1505;SDS011;744;51.436;7.356;2023-03-05T06:43:31;13.80;;;8.80;;
1505;SDS011;744;51.436;7.356;2023-03-05T06:46:05;15.43;;;8.57;;
1505;SDS011;744;51.436;7.356;2023-03-05T06:48:35;9.33;;;7.10;;
1505;SDS011;744;51.436;7.356;2023-03-05T06:51:02;10.97;;;7.77;;
1505;SDS011;744;51.436;7.356;2023-03-05T06:53:28;7.23;;;5.20;;
1505;SDS011;744;51.436;7.356;2023-03-05T06:55:55;8.93;;;5.63;;
1505;SDS011;744;51.436;7.356;2023-03-05T06:58:22;13.00;;;6.37;;
1505;SDS011;744;51.436;7.356;2023-03-05T07:00:49;8.73;;;4.83;;
1505;SDS011;744;51.436;7.356;2023-03-05T07:03:16;8.20;;;5.00;;
1505;SDS011;744;51.436;7.356;2023-03-05T07:05:43;6.53;;;3.87;;
1505;SDS011;744;51.436;7.356;2023-03-05T07:08:10;10.10;;;4.50;;
1505;SDS011;744;51.436;7.356;2023-03-05T07:10:40;10.47;;;5.03;;
1505;SDS011;744;51.436;7.356;2023-03-05T07:13:09;6.10;;;3.60;;
1505;SDS011;744;51.436;7.356;2023-03-05T07:15:37;8.57;;;3.10;;
1505;SDS011;744;51.436;7.356;2023-03-05T07:18:05;8.10;;;3.47;;
1505;SDS011;744;51.436;7.356;2023-03-05T07:20:35;5.47;;;3.60;;
1505;SDS011;744;51.436;7.356;2023-03-05T07:23:03;10.47;;;3.40;;
1505;SDS011;744;51.436;7.356;2023-03-05T07:25:30;7.33;;;2.70;;
1505;SDS011;744;51.436;7.356;2023-03-05T07:27:57;5.80;;;3.17;;
1505;SDS011;744;51.436;7.356;2023-03-05T07:30:24;12.93;;;2.40;;
1505;SDS011;744;51.436;7.356;2023-03-05T07:32:51;9.97;;;3.93;;
1505;SDS011;744;51.436;7.356;2023-03-05T07:35:17;10.83;;;3.63;;
1505;SDS011;744;51.436;7.356;2023-03-05T07:37:44;11.33;;;4.17;;
1505;SDS011;744;51.436;7.356;2023-03-05T07:40:11;5.30;;;3.93;;
1505;SDS011;744;51.436;7.356;2023-03-05T07:42:38;6.87;;;3.13;;
1505;SDS011;744;51.436;7.356;2023-03-05T07:45:05;8.13;;;3.80;;
1505;SDS011;744;51.436;7.356;2023-03-05T07:47:32;6.83;;;3.40;;
1505;SDS011;744;51.436;7.356;2023-03-05T07:49:59;5.03;;;3.00;;
1505;SDS011;744;51.436;7.356;2023-03-05T07:52:26;8.17;;;5.13;;
1505;SDS011;744;51.436;7.356;2023-03-05T07:54:53;7.97;;;5.73;;
1505;SDS011;744;51.436;7.356;2023-03-05T07:57:20;9.43;;;5.47;;
1505;SDS011;744;51.436;7.356;2023-03-05T07:59:47;8.13;;;4.70;;
1505;SDS011;744;51.436;7.356;2023-03-05T08:02:13;9.93;;;4.70;;
1505;SDS011;744;51.436;7.356;2023-03-05T08:04:40;8.57;;;5.90;;
1505;SDS011;744;51.436;7.356;2023-03-05T08:07:08;9.37;;;4.93;;
1505;SDS011;744;51.436;7.356;2023-03-05T08:09:35;8.13;;;4.70;;
1505;SDS011;744;51.436;7.356;2023-03-05T08:12:01;7.10;;;5.40;;
1505;SDS011;744;51.436;7.356;2023-03-05T08:14:28;8.70;;;5.93;;
1505;SDS011;744;51.436;7.356;2023-03-05T08:16:55;11.00;;;5.30;;
1505;SDS011;744;51.436;7.356;2023-03-05T08:19:22;12.60;;;5.40;;
1505;SDS011;744;51.436;7.356;2023-03-05T08:21:49;12.73;;;5.60;;
1505;SDS011;744;51.436;7.356;2023-03-05T08:24:16;12.93;;;5.23;;
1505;SDS011;744;51.436;7.356;2023-03-05T08:26:42;9.40;;;5.87;;
1505;SDS011;744;51.436;7.356;2023-03-05T08:29:10;11.63;;;6.97;;
1505;SDS011;744;51.436;7.356;2023-03-05T08:31:37;12.60;;;7.27;;
1505;SDS011;744;51.436;7.356;2023-03-05T08:34:04;13.50;;;8.30;;
1505;SDS011;744;51.436;7.356;2023-03-05T08:36:32;17.30;;;8.60;;
1505;SDS011;744;51.436;7.356;2023-03-05T08:38:58;16.93;;;9.43;;
1505;SDS011;744;51.436;7.356;2023-03-05T08:41:25;15.37;;;10.70;;
1505;SDS011;744;51.436;7.356;2023-03-05T08:43:52;19.43;;;11.43;;
1505;SDS011;744;51.436;7.356;2023-03-05T08:46:19;20.40;;;11.80;;
1505;SDS011;744;51.436;7.356;2023-03-05T08:48:46;19.43;;;11.67;;
1505;SDS011;744;51.436;7.356;2023-03-05T08:51:13;14.13;;;12.00;;
1505;SDS011;744;51.436;7.356;2023-03-05T08:53:42;18.03;;;10.93;;
1505;SDS011;744;51.436;7.356;2023-03-05T08:56:10;17.40;;;10.70;;
1505;SDS011;744;51.436;7.356;2023-03-05T08:58:37;13.57;;;10.20;;
1505;SDS011;744;51.436;7.356;2023-03-05T09:01:04;10.60;;;8.23;;
1505;SDS011;744;51.436;7.356;2023-03-05T09:03:32;14.50;;;10.00;;
1505;SDS011;744;51.436;7.356;2023-03-05T09:06:00;12.30;;;9.23;;
1505;SDS011;744;51.436;7.356;2023-03-05T09:08:28;11.17;;;9.13;;
1505;SDS011;744;51.436;7.356;2023-03-05T09:10:55;12.60;;;10.80;;
1505;SDS011;744;51.436;7.356;2023-03-05T09:13:22;12.47;;;9.97;;
1505;SDS011;744;51.436;7.356;2023-03-05T09:15:53;12.83;;;10.70;;
1505;SDS011;744;51.436;7.356;2023-03-05T09:18:25;17.77;;;13.40;;
1505;SDS011;744;51.436;7.356;2023-03-05T09:20:52;12.70;;;10.80;;
1505;SDS011;744;51.436;7.356;2023-03-05T09:23:19;15.90;;;12.60;;
1505;SDS011;744;51.436;7.356;2023-03-05T09:25:46;17.47;;;14.10;;
1505;SDS011;744;51.436;7.356;2023-03-05T09:28:14;15.80;;;12.43;;
1505;SDS011;744;51.436;7.356;2023-03-05T09:30:41;15.40;;;13.17;;
1505;SDS011;744;51.436;7.356;2023-03-05T09:33:08;16.03;;;13.80;;
1505;SDS011;744;51.436;7.356;2023-03-05T09:35:35;14.80;;;13.03;;
1505;SDS011;744;51.436;7.356;2023-03-05T09:38:02;15.53;;;13.70;;
1505;SDS011;744;51.436;7.356;2023-03-05T09:46:31;15.77;;;12.23;;
1505;SDS011;744;51.436;7.356;2023-03-05T09:49:44;11.57;;;8.87;;
1505;SDS011;744;51.436;7.356;2023-03-05T09:52:46;13.50;;;10.13;;
1505;SDS011;744;51.436;7.356;2023-03-05T09:55:22;11.47;;;8.97;;
1505;SDS011;744;51.436;7.356;2023-03-05T09:57:53;11.83;;;10.30;;
1505;SDS011;744;51.436;7.356;2023-03-05T10:06:31;12.00;;;8.93;;
1505;SDS011;744;51.436;7.356;2023-03-05T10:09:24;8.30;;;7.50;;
1505;SDS011;744;51.436;7.356;2023-03-05T10:12:10;8.07;;;7.27;;
1505;SDS011;744;51.436;7.356;2023-03-05T10:14:38;7.70;;;6.97;;
1505;SDS011;744;51.436;7.356;2023-03-05T10:22:23;10.17;;;9.00;;
1505;SDS011;744;51.436;7.356;2023-03-05T10:27:47;11.63;;;9.90;;
1505;SDS011;744;51.436;7.356;2023-03-05T10:30:26;15.77;;;10.97;;
1505;SDS011;744;51.436;7.356;2023-03-05T10:38:55;10.30;;;9.10;;
1505;SDS011;744;51.436;7.356;2023-03-05T10:44:35;11.07;;;9.90;;
1505;SDS011;744;51.436;7.356;2023-03-05T10:49:51;15.23;;;9.57;;
1505;SDS011;744;51.436;7.356;2023-03-05T10:55:17;11.90;;;9.73;;
1505;SDS011;744;51.436;7.356;2023-03-05T10:57:46;10.83;;;9.53;;
1505;SDS011;744;51.436;7.356;2023-03-05T11:00:23;9.60;;;8.60;;
1505;SDS011;744;51.436;7.356;2023-03-05T11:02:58;11.30;;;8.60;;
1505;SDS011;744;51.436;7.356;2023-03-05T11:11:10;7.93;;;6.23;;
1505;SDS011;744;51.436;7.356;2023-03-05T11:21:43;8.60;;;6.40;;
1505;SDS011;744;51.436;7.356;2023-03-05T11:24:12;7.57;;;6.83;;
1505;SDS011;744;51.436;7.356;2023-03-05T11:26:55;8.07;;;6.60;;
1505;SDS011;744;51.436;7.356;2023-03-05T11:29:24;7.17;;;6.33;;
1505;SDS011;744;51.436;7.356;2023-03-05T11:31:53;7.57;;;6.97;;
1505;SDS011;744;51.436;7.356;2023-03-05T11:34:30;8.40;;;6.70;;
1505;SDS011;744;51.436;7.356;2023-03-05T11:37:01;11.67;;;8.33;;
1505;SDS011;744;51.436;7.356;2023-03-05T11:39:29;9.93;;;7.43;;
1505;SDS011;744;51.436;7.356;2023-03-05T11:44:44;8.07;;;7.23;;
1505;SDS011;744;51.436;7.356;2023-03-05T11:47:35;8.47;;;7.30;;
1505;SDS011;744;51.436;7.356;2023-03-05T11:53:21;11.93;;;9.20;;
1505;SDS011;744;51.436;7.356;2023-03-05T11:55:44;9.37;;;7.20;;
1505;SDS011;744;51.436;7.356;2023-03-05T12:00:57;6.93;;;6.23;;
1505;SDS011;744;51.436;7.356;2023-03-05T12:03:30;7.20;;;6.50;;
1505;SDS011;744;51.436;7.356;2023-03-05T12:06:13;7.57;;;5.90;;
1505;SDS011;744;51.436;7.356;2023-03-05T12:08:57;5.77;;;5.27;;
1505;SDS011;744;51.436;7.356;2023-03-05T12:11:28;5.97;;;5.47;;
1505;SDS011;744;51.436;7.356;2023-03-05T12:16:45;5.30;;;4.80;;
1505;SDS011;744;51.436;7.356;2023-03-05T12:19:28;7.17;;;4.73;;
1505;SDS011;744;51.436;7.356;2023-03-05T12:22:02;5.80;;;4.60;;
1505;SDS011;744;51.436;7.356;2023-03-05T12:31:55;4.40;;;3.80;;
1505;SDS011;744;51.436;7.356;2023-03-05T12:34:40;3.93;;;3.63;;
1505;SDS011;744;51.436;7.356;2023-03-05T12:37:55;4.37;;;3.97;;
1505;SDS011;744;51.436;7.356;2023-03-05T12:47:46;2.73;;;2.00;;
1505;SDS011;744;51.436;7.356;2023-03-05T12:53:11;2.80;;;2.00;;
1505;SDS011;744;51.436;7.356;2023-03-05T12:58:16;1.50;;;1.40;;
1505;SDS011;744;51.436;7.356;2023-03-05T13:04:03;2.67;;;1.33;;
1505;SDS011;744;51.436;7.356;2023-03-05T13:06:37;1.80;;;1.70;;
1505;SDS011;744;51.436;7.356;2023-03-05T13:11:49;2.90;;;2.03;;
1505;SDS011;744;51.436;7.356;2023-03-05T13:25:59;2.87;;;2.57;;
1505;SDS011;744;51.436;7.356;2023-03-05T13:28:27;2.70;;;1.80;;
1505;SDS011;744;51.436;7.356;2023-03-05T13:31:02;6.33;;;3.60;;
1505;SDS011;744;51.436;7.356;2023-03-05T13:33:37;3.53;;;2.83;;
1505;SDS011;744;51.436;7.356;2023-03-05T13:36:04;4.60;;;2.60;;
1505;SDS011;744;51.436;7.356;2023-03-05T13:38:35;3.37;;;3.07;;
1505;SDS011;744;51.436;7.356;2023-03-05T13:41:27;2.70;;;2.50;;
1505;SDS011;744;51.436;7.356;2023-03-05T13:43:57;5.53;;;4.50;;
1505;SDS011;744;51.436;7.356;2023-03-05T13:46:27;3.97;;;3.60;;
1505;SDS011;744;51.436;7.356;2023-03-05T13:49:17;2.90;;;2.70;;
1505;SDS011;744;51.436;7.356;2023-03-05T13:51:54;3.80;;;3.40;;
1505;SDS011;744;51.436;7.356;2023-03-05T13:54:22;10.67;;;3.77;;
1505;SDS011;744;51.436;7.356;2023-03-05T13:56:58;6.53;;;3.87;;
1505;SDS011;744;51.436;7.356;2023-03-05T13:59:28;4.17;;;3.60;;
1505;SDS011;744;51.436;7.356;2023-03-05T14:01:57;6.53;;;4.60;;
1505;SDS011;744;51.436;7.356;2023-03-05T14:04:42;8.00;;;4.07;;
1505;SDS011;744;51.436;7.356;2023-03-05T14:09:56;5.67;;;3.70;;
1505;SDS011;744;51.436;7.356;2023-03-05T14:15:24;4.50;;;3.50;;
1505;SDS011;744;51.436;7.356;2023-03-05T14:20:38;5.40;;;3.70;;
1505;SDS011;744;51.436;7.356;2023-03-05T14:26:10;4.70;;;3.80;;
1505;SDS011;744;51.436;7.356;2023-03-05T14:28:43;9.00;;;4.90;;
1505;SDS011;744;51.436;7.356;2023-03-05T14:31:19;8.23;;;5.50;;
1505;SDS011;744;51.436;7.356;2023-03-05T14:33:47;13.70;;;5.90;;
1505;SDS011;744;51.436;7.356;2023-03-05T14:36:20;7.20;;;6.20;;
1505;SDS011;744;51.436;7.356;2023-03-05T14:38:54;9.27;;;6.83;;
1505;SDS011;744;51.436;7.356;2023-03-05T14:44:00;9.00;;;7.07;;
1505;SDS011;744;51.436;7.356;2023-03-05T14:46:27;7.10;;;6.43;;
1505;SDS011;744;51.436;7.356;2023-03-05T14:48:54;6.40;;;5.70;;
1505;SDS011;744;51.436;7.356;2023-03-05T14:51:21;6.53;;;5.90;;
1505;SDS011;744;51.436;7.356;2023-03-05T14:53:48;4.73;;;4.27;;
1505;SDS011;744;51.436;7.356;2023-03-05T14:56:22;5.00;;;4.50;;
1505;SDS011;744;51.436;7.356;2023-03-05T14:58:54;6.13;;;5.47;;
1505;SDS011;744;51.436;7.356;2023-03-05T15:01:22;7.07;;;5.17;;
1505;SDS011;744;51.436;7.356;2023-03-05T15:03:50;7.23;;;6.50;;
1505;SDS011;744;51.436;7.356;2023-03-05T15:06:18;8.10;;;5.43;;
1505;SDS011;744;51.436;7.356;2023-03-05T15:09:02;10.03;;;6.23;;
1505;SDS011;744;51.436;7.356;2023-03-05T15:11:29;6.83;;;5.53;;
1505;SDS011;744;51.436;7.356;2023-03-05T15:13:56;7.73;;;5.10;;
1505;SDS011;744;51.436;7.356;2023-03-05T15:16:23;6.97;;;5.30;;
1505;SDS011;744;51.436;7.356;2023-03-05T15:18:50;7.83;;;5.63;;
1505;SDS011;744;51.436;7.356;2023-03-05T15:21:17;8.23;;;5.33;;
1505;SDS011;744;51.436;7.356;2023-03-05T15:23:45;8.00;;;6.23;;
1505;SDS011;744;51.436;7.356;2023-03-05T15:26:12;7.03;;;6.00;;
1505;SDS011;744;51.436;7.356;2023-03-05T15:28:40;8.70;;;6.07;;
1505;SDS011;744;51.436;7.356;2023-03-05T15:31:07;6.30;;;5.40;;
1505;SDS011;744;51.436;7.356;2023-03-05T15:33:34;5.97;;;5.40;;
1505;SDS011;744;51.436;7.356;2023-03-05T15:36:03;5.83;;;5.17;;
1505;SDS011;744;51.436;7.356;2023-03-05T15:38:30;6.40;;;5.30;;
1505;SDS011;744;51.436;7.356;2023-03-05T15:40:56;6.20;;;5.60;;
1505;SDS011;744;51.436;7.356;2023-03-05T15:43:27;6.27;;;5.67;;
1505;SDS011;744;51.436;7.356;2023-03-05T15:45:55;9.97;;;6.63;;
1505;SDS011;744;51.436;7.356;2023-03-05T15:48:22;5.83;;;5.23;;
1505;SDS011;744;51.436;7.356;2023-03-05T15:50:49;5.37;;;3.97;;
1505;SDS011;744;51.436;7.356;2023-03-05T15:53:16;4.30;;;3.93;;
1505;SDS011;744;51.436;7.356;2023-03-05T15:55:43;5.17;;;4.40;;
1505;SDS011;744;51.436;7.356;2023-03-05T15:58:12;5.23;;;4.37;;
1505;SDS011;744;51.436;7.356;2023-03-05T16:00:41;4.50;;;4.03;;
1505;SDS011;744;51.436;7.356;2023-03-05T16:03:09;6.00;;;5.40;;
1505;SDS011;744;51.436;7.356;2023-03-05T16:05:36;4.20;;;3.73;;
1505;SDS011;744;51.436;7.356;2023-03-05T16:08:04;4.03;;;3.53;;
1505;SDS011;744;51.436;7.356;2023-03-05T16:10:31;4.30;;;3.97;;
1505;SDS011;744;51.436;7.356;2023-03-05T16:13:03;3.97;;;3.57;;
1505;SDS011;744;51.436;7.356;2023-03-05T16:15:33;4.50;;;4.10;;
1505;SDS011;744;51.436;7.356;2023-03-05T16:18:01;5.30;;;4.80;;
1505;SDS011;744;51.436;7.356;2023-03-05T16:20:33;6.07;;;5.57;;
1505;SDS011;744;51.436;7.356;2023-03-05T16:23:01;6.40;;;5.73;;
1505;SDS011;744;51.436;7.356;2023-03-05T16:25:29;7.50;;;6.40;;
1505;SDS011;744;51.436;7.356;2023-03-05T16:27:56;10.33;;;8.00;;
1505;SDS011;744;51.436;7.356;2023-03-05T16:30:23;8.90;;;6.17;;
1505;SDS011;744;51.436;7.356;2023-03-05T16:32:50;9.60;;;6.70;;
1505;SDS011;744;51.436;7.356;2023-03-05T16:35:19;8.33;;;7.10;;
1505;SDS011;744;51.436;7.356;2023-03-05T16:37:45;9.50;;;7.27;;
1505;SDS011;744;51.436;7.356;2023-03-05T16:40:13;6.60;;;5.50;;
1505;SDS011;744;51.436;7.356;2023-03-05T16:42:40;9.00;;;5.60;;
1505;SDS011;744;51.436;7.356;2023-03-05T16:45:08;6.10;;;5.40;;
1505;SDS011;744;51.436;7.356;2023-03-05T16:47:36;7.33;;;6.20;;
1505;SDS011;744;51.436;7.356;2023-03-05T16:50:04;7.30;;;6.23;;
1505;SDS011;744;51.436;7.356;2023-03-05T16:52:32;8.30;;;5.83;;
1505;SDS011;744;51.436;7.356;2023-03-05T16:55:00;6.17;;;5.50;;
1505;SDS011;744;51.436;7.356;2023-03-05T16:57:26;7.20;;;5.80;;
1505;SDS011;744;51.436;7.356;2023-03-05T16:59:54;8.30;;;6.03;;
1505;SDS011;744;51.436;7.356;2023-03-05T17:02:22;7.73;;;5.73;;
1505;SDS011;744;51.436;7.356;2023-03-05T17:04:48;10.93;;;5.20;;
1505;SDS011;744;51.436;7.356;2023-03-05T17:07:15;6.00;;;4.70;;
1505;SDS011;744;51.436;7.356;2023-03-05T17:09:43;10.17;;;6.00;;
1505;SDS011;744;51.436;7.356;2023-03-05T17:12:09;11.03;;;5.53;;
1505;SDS011;744;51.436;7.356;2023-03-05T17:14:36;12.17;;;5.60;;
1505;SDS011;744;51.436;7.356;2023-03-05T17:17:03;6.80;;;5.60;;
1505;SDS011;744;51.436;7.356;2023-03-05T17:19:30;6.40;;;5.53;;
1505;SDS011;744;51.436;7.356;2023-03-05T17:21:57;9.47;;;6.83;;
1505;SDS011;744;51.436;7.356;2023-03-05T17:24:24;13.80;;;6.60;;
1505;SDS011;744;51.436;7.356;2023-03-05T17:26:51;8.23;;;7.03;;
1505;SDS011;744;51.436;7.356;2023-03-05T17:29:18;7.00;;;6.30;;
1505;SDS011;744;51.436;7.356;2023-03-05T17:31:45;7.97;;;6.50;;